createdAt,value
2018-08-17T00:01:32.972Z,7.90
2018-08-17T00:04:00.293Z,8.57
2018-08-17T00:06:31.002Z,6.95
2018-08-17T00:08:57.725Z,7.93
2018-08-17T00:11:25.190Z,7.10
2018-08-17T00:13:51.880Z,7.18
2018-08-17T00:16:18.732Z,7.37
2018-08-17T00:18:46.131Z,7.87
2018-08-17T00:21:12.872Z,8.10
2018-08-17T00:23:39.652Z,7.97
2018-08-17T00:26:07.357Z,7.40
2018-08-17T00:28:34.005Z,8.30
2018-08-17T00:31:00.832Z,7.07
2018-08-17T00:33:27.499Z,7.53
2018-08-17T00:35:54.187Z,7.97
2018-08-17T00:38:20.872Z,8.88
2018-08-17T00:40:48.385Z,8.33
2018-08-17T00:43:15.156Z,7.90
2018-08-17T00:45:42.155Z,8.33
2018-08-17T00:48:09.647Z,8.13
2018-08-17T00:50:37.283Z,8.73
2018-08-17T00:53:04.025Z,7.70
2018-08-17T00:55:30.812Z,7.30
2018-08-17T00:57:57.524Z,9.93
2018-08-17T01:00:24.195Z,7.93
2018-08-17T01:02:51.002Z,7.85
2018-08-17T01:05:17.705Z,8.60
2018-08-17T01:07:45.159Z,7.37
2018-08-17T01:10:11.923Z,8.03
2018-08-17T01:12:38.600Z,7.12
2018-08-17T01:15:05.461Z,7.83
2018-08-17T01:17:32.856Z,7.47
2018-08-17T01:20:00.279Z,8.03
2018-08-17T01:22:26.953Z,7.77
2018-08-17T01:24:54.352Z,7.80
2018-08-17T01:27:21.110Z,7.13
2018-08-17T01:29:47.812Z,7.73
2018-08-17T01:32:14.733Z,7.37
2018-08-17T01:34:43.156Z,8.47
2018-08-17T01:37:09.881Z,7.37
2018-08-17T01:39:36.640Z,8.70
2018-08-17T01:42:03.507Z,7.80
2018-08-17T01:44:30.201Z,7.43
2018-08-17T01:46:57.046Z,7.40
2018-08-17T01:49:24.528Z,8.30
2018-08-17T01:51:51.943Z,7.27
2018-08-17T01:54:19.093Z,7.83
2018-08-17T01:56:45.882Z,6.53
2018-08-17T01:59:12.577Z,7.00
2018-08-17T02:01:39.262Z,6.40
2018-08-17T02:04:06.175Z,6.90
2018-08-17T02:06:33.097Z,7.05
2018-08-17T02:09:00.606Z,7.10
2018-08-17T02:11:27.769Z,7.35
2018-08-17T02:13:55.087Z,7.10
2018-08-17T02:16:21.885Z,7.37
2018-08-17T02:18:49.302Z,6.73
2018-08-17T02:21:16.118Z,6.50
2018-08-17T02:23:42.789Z,6.77
2018-08-17T02:26:10.212Z,6.53
2018-08-17T02:28:36.890Z,6.60
2018-08-17T02:31:03.630Z,7.40
2018-08-17T02:33:30.297Z,6.37
2018-08-17T02:39:11.477Z,7.00
2018-08-17T02:41:38.388Z,7.10
2018-08-17T02:44:05.337Z,5.93
2018-08-17T02:46:32.160Z,6.32
2018-08-17T02:48:58.890Z,6.40
2018-08-17T02:51:25.615Z,6.37
2018-08-17T02:53:52.324Z,7.05
2018-08-17T02:56:19.207Z,6.23
2018-08-17T02:58:46.672Z,6.40
2018-08-17T03:01:13.360Z,7.18
2018-08-17T03:03:40.231Z,7.03
2018-08-17T03:09:00.089Z,6.40
2018-08-17T03:11:26.923Z,6.70
2018-08-17T03:13:53.621Z,6.60
2018-08-17T03:16:20.302Z,6.78
2018-08-17T03:18:47.732Z,6.30
2018-08-17T03:21:14.394Z,6.70
2018-08-17T03:23:42.072Z,6.43
2018-08-17T03:26:08.738Z,6.60
2018-08-17T03:28:35.394Z,5.97
2018-08-17T03:31:02.195Z,6.30
2018-08-17T03:33:28.854Z,5.90
2018-08-17T03:35:55.508Z,6.22
2018-08-17T03:38:22.977Z,6.18
2018-08-17T03:40:49.632Z,6.75
2018-08-17T03:43:17.094Z,6.40
2018-08-17T03:45:44.518Z,6.25
2018-08-17T03:48:11.221Z,6.78
2018-08-17T03:50:37.911Z,6.25
2018-08-17T03:53:04.628Z,6.80
2018-08-17T03:55:31.303Z,6.78
2018-08-17T03:57:58.798Z,7.07
2018-08-17T04:00:25.537Z,6.05
2018-08-17T04:02:52.355Z,6.03
2018-08-17T04:05:19.035Z,5.57
2018-08-17T04:07:45.761Z,6.18
2018-08-17T04:10:12.458Z,6.30
2018-08-17T04:12:39.887Z,6.12
2018-08-17T04:15:06.602Z,5.97
2018-08-17T04:17:33.266Z,6.50
2018-08-17T04:19:59.946Z,5.60
2018-08-17T04:22:27.419Z,5.90
2018-08-17T04:24:54.380Z,6.22
2018-08-17T04:27:21.081Z,5.55
2018-08-17T04:29:48.538Z,5.95
2018-08-17T04:32:15.988Z,5.25
2018-08-17T04:34:42.651Z,5.85
2018-08-17T04:37:09.337Z,5.90
2018-08-17T04:39:35.992Z,5.53
2018-08-17T04:42:02.728Z,5.50
2018-08-17T04:44:29.422Z,5.68
2018-08-17T04:46:56.137Z,5.40
2018-08-17T04:49:23.672Z,5.22
2018-08-17T04:51:50.378Z,5.60
2018-08-17T04:54:17.091Z,5.75
2018-08-17T04:56:43.896Z,5.60
2018-08-17T04:59:10.572Z,5.37
2018-08-17T05:01:37.364Z,5.37
2018-08-17T05:04:04.079Z,5.30
2018-08-17T05:06:30.791Z,4.72
2018-08-17T05:08:58.244Z,4.93
2018-08-17T05:11:24.962Z,4.87
2018-08-17T05:13:52.406Z,4.87
2018-08-17T05:16:19.052Z,4.50
2018-08-17T05:18:45.868Z,5.18
2018-08-17T05:21:12.537Z,4.03
2018-08-17T05:23:39.203Z,4.45
2018-08-17T05:26:05.992Z,3.80
2018-08-17T05:28:32.657Z,4.60
2018-08-17T05:31:00.125Z,4.05
2018-08-17T05:33:26.840Z,4.37
2018-08-17T05:35:53.554Z,4.30
2018-08-17T05:38:20.245Z,4.28
2018-08-17T05:40:47.718Z,4.20
2018-08-17T05:43:14.392Z,3.53
2018-08-17T05:45:41.110Z,4.12
2018-08-17T05:48:07.863Z,4.00
2018-08-17T05:50:34.589Z,4.20
2018-08-17T05:53:01.250Z,4.15
2018-08-17T05:55:28.165Z,4.32
2018-08-17T05:57:54.800Z,3.78
2018-08-17T06:00:21.495Z,3.50
2018-08-17T06:02:48.443Z,3.42
2018-08-17T06:05:15.908Z,3.67
2018-08-17T06:07:42.563Z,3.60
2018-08-17T06:10:10.179Z,3.75
2018-08-17T06:12:36.868Z,4.07
2018-08-17T06:15:03.564Z,4.50
2018-08-17T06:17:30.357Z,3.72
2018-08-17T06:19:57.023Z,3.28
2018-08-17T06:22:23.695Z,3.12
2018-08-17T06:24:50.472Z,3.80
2018-08-17T06:27:17.193Z,2.75
2018-08-17T06:29:44.663Z,2.95
2018-08-17T06:32:12.153Z,2.87
2018-08-17T06:34:38.861Z,2.90
2018-08-17T06:37:06.397Z,2.83
2018-08-17T06:39:33.101Z,4.40
2018-08-17T06:41:59.799Z,2.67
2018-08-17T06:44:27.245Z,2.90
2018-08-17T06:46:54.689Z,3.10
2018-08-17T06:49:21.415Z,2.60
2018-08-17T06:51:48.135Z,3.10
2018-08-17T06:54:14.865Z,2.85
2018-08-17T06:56:41.685Z,2.83
2018-08-17T06:59:08.346Z,2.80
2018-08-17T07:01:35.811Z,2.65
2018-08-17T07:04:03.529Z,2.50
2018-08-17T07:06:30.917Z,2.83
2018-08-17T07:08:57.675Z,2.58
2018-08-17T07:11:25.115Z,2.92
2018-08-17T07:13:51.751Z,2.90
2018-08-17T07:16:18.449Z,3.92
2018-08-17T07:18:45.743Z,2.72
2018-08-17T07:21:12.493Z,2.20
2018-08-17T07:23:39.205Z,6.90
2018-08-17T07:26:06.783Z,2.30
2018-08-17T07:28:33.483Z,2.33
2018-08-17T07:31:00.984Z,2.80
2018-08-17T07:33:27.737Z,2.17
2018-08-17T07:35:54.474Z,2.40
2018-08-17T07:38:21.907Z,2.03
2018-08-17T07:40:48.726Z,2.30
2018-08-17T07:43:16.225Z,2.40
2018-08-17T07:45:43.158Z,2.00
2018-08-17T07:48:10.009Z,2.22
2018-08-17T07:50:36.672Z,2.37
2018-08-17T07:53:03.455Z,4.00
2018-08-17T07:55:31.570Z,2.22
2018-08-17T07:57:59.239Z,2.50
2018-08-17T08:00:25.977Z,2.28
2018-08-17T08:02:52.654Z,1.92
2018-08-17T08:05:20.285Z,2.17
2018-08-17T08:07:46.943Z,2.10
2018-08-17T08:10:13.725Z,2.17
2018-08-17T08:12:40.575Z,2.17
2018-08-17T08:15:07.444Z,2.10
2018-08-17T08:17:34.419Z,2.00
2018-08-17T08:20:01.299Z,2.30
2018-08-17T08:22:28.050Z,2.35
2018-08-17T08:24:54.752Z,2.10
2018-08-17T08:27:22.470Z,2.28
2018-08-17T08:29:49.243Z,2.30
2018-08-17T08:32:16.193Z,1.90
2018-08-17T08:34:42.919Z,2.20
2018-08-17T08:37:24.894Z,1.92
2018-08-17T08:39:52.735Z,2.03
2018-08-17T08:42:19.815Z,2.12
2018-08-17T08:44:47.015Z,2.10
2018-08-17T08:47:14.149Z,2.15
2018-08-17T08:49:41.375Z,1.77
2018-08-17T08:52:08.365Z,2.03
2018-08-17T08:54:35.459Z,2.05
2018-08-17T08:57:17.877Z,2.85
2018-08-17T08:59:49.487Z,4.35
2018-08-17T09:02:17.237Z,1.90
2018-08-17T09:04:44.367Z,1.90
2018-08-17T09:07:11.707Z,2.12
2018-08-17T09:09:38.734Z,2.05
2018-08-17T09:12:05.786Z,1.60
2018-08-17T09:14:33.532Z,1.98
2018-08-17T09:17:00.616Z,2.67
2018-08-17T09:19:28.489Z,2.00
2018-08-17T09:21:55.568Z,1.58
2018-08-17T09:24:22.655Z,2.87
2018-08-17T09:26:49.847Z,2.10
2018-08-17T09:29:17.689Z,1.98
2018-08-17T09:31:44.827Z,2.12
2018-08-17T09:34:11.555Z,1.58
2018-08-17T09:36:38.250Z,2.05
2018-08-17T09:39:05.157Z,1.83
2018-08-17T09:41:31.877Z,2.10
2018-08-17T09:43:58.570Z,1.75
2018-08-17T09:46:25.285Z,2.08
2018-08-17T09:48:52.694Z,7.47
2018-08-17T09:51:20.167Z,1.73
2018-08-17T09:53:46.887Z,1.95
2018-08-17T09:56:14.356Z,1.70
2018-08-17T09:58:41.491Z,1.92
2018-08-17T10:01:08.433Z,2.03
2018-08-17T10:03:35.943Z,2.10
2018-08-17T10:06:03.204Z,1.87
2018-08-17T10:08:30.745Z,2.00
2018-08-17T10:10:57.521Z,1.70
2018-08-17T10:13:24.276Z,2.10
2018-08-17T10:15:51.784Z,2.00
2018-08-17T10:18:18.692Z,1.90
2018-08-17T10:20:45.452Z,1.90
2018-08-17T10:23:12.134Z,2.05
2018-08-17T10:25:39.205Z,4.68
2018-08-17T10:28:05.942Z,2.20
2018-08-17T10:30:32.640Z,2.10
2018-08-17T10:32:59.367Z,2.60
2018-08-17T10:35:26.177Z,2.05
2018-08-17T10:37:53.632Z,2.10
2018-08-17T10:40:21.055Z,2.20
2018-08-17T10:42:47.912Z,2.00
2018-08-17T10:45:14.664Z,2.03
2018-08-17T10:47:41.305Z,2.17
2018-08-17T10:50:08.087Z,2.25
2018-08-17T10:52:34.771Z,2.15
2018-08-17T10:55:16.335Z,1.95
2018-08-17T10:57:43.868Z,2.00
2018-08-17T11:00:10.693Z,2.10
2018-08-17T11:02:38.134Z,1.95
2018-08-17T11:05:04.900Z,2.35
2018-08-17T11:07:32.338Z,2.00
2018-08-17T11:09:59.548Z,1.60
2018-08-17T11:12:26.275Z,2.37
2018-08-17T11:14:52.977Z,2.10
2018-08-17T11:17:20.772Z,2.00
2018-08-17T11:19:47.513Z,3.08
2018-08-17T11:22:14.458Z,1.90
2018-08-17T11:24:41.708Z,2.03
2018-08-17T11:27:09.259Z,2.10
2018-08-17T11:29:35.991Z,1.83
2018-08-17T11:32:02.749Z,2.55
2018-08-17T11:34:29.552Z,2.08
2018-08-17T11:36:56.434Z,2.03
2018-08-17T11:39:23.177Z,2.20
2018-08-17T11:41:50.328Z,8.90
2018-08-17T11:44:17.144Z,1.90
2018-08-17T11:46:44.625Z,3.22
2018-08-17T11:49:11.358Z,2.20
2018-08-17T11:51:38.047Z,4.43
2018-08-17T11:54:04.829Z,3.40
2018-08-17T11:56:31.608Z,4.18
2018-08-17T11:58:58.306Z,1.83
2018-08-17T12:01:25.807Z,2.10
2018-08-17T12:03:52.735Z,2.28
2018-08-17T12:06:19.674Z,2.30
2018-08-17T12:08:46.535Z,1.92
2018-08-17T12:11:14.180Z,2.42
2018-08-17T12:13:41.024Z,3.12
2018-08-17T12:16:08.177Z,4.82
2018-08-17T12:18:35.175Z,2.53
2018-08-17T12:21:02.781Z,1.80
2018-08-17T12:23:29.612Z,2.65
2018-08-17T12:25:56.365Z,3.05
2018-08-17T12:28:23.047Z,4.47
2018-08-17T12:30:50.663Z,2.28
2018-08-17T12:33:17.505Z,3.08
2018-08-17T12:35:44.415Z,2.30
2018-08-17T12:38:11.817Z,3.03
2018-08-17T12:40:38.646Z,2.37
2018-08-17T12:43:05.389Z,2.35
2018-08-17T12:45:32.126Z,3.03
2018-08-17T12:47:58.869Z,3.70
2018-08-17T12:50:25.596Z,2.70
2018-08-17T12:52:52.353Z,2.67
2018-08-17T12:55:19.088Z,2.47
2018-08-17T12:57:45.757Z,2.08
2018-08-17T13:00:12.469Z,2.20
2018-08-17T13:02:40.029Z,2.80
2018-08-17T13:05:06.872Z,2.50
2018-08-17T13:07:33.613Z,2.37
2018-08-17T13:10:00.433Z,3.65
2018-08-17T13:12:27.196Z,4.80
2018-08-17T13:14:53.944Z,2.15
2018-08-17T13:17:20.809Z,2.58
2018-08-17T13:19:47.619Z,3.20
2018-08-17T13:22:14.770Z,2.47
2018-08-17T13:24:42.417Z,2.37
2018-08-17T13:27:09.176Z,2.42
2018-08-17T13:29:35.841Z,2.50
2018-08-17T13:32:02.653Z,4.45
2018-08-17T13:34:29.706Z,3.08
2018-08-17T13:36:56.640Z,2.33
2018-08-17T13:39:23.331Z,2.42
2018-08-17T13:41:50.126Z,3.72
2018-08-17T13:44:16.868Z,2.58
2018-08-17T13:46:43.916Z,2.60
2018-08-17T13:49:10.657Z,2.78
2018-08-17T13:51:37.362Z,2.95
2018-08-17T13:54:04.957Z,2.70
2018-08-17T13:56:31.800Z,3.65
2018-08-17T13:58:58.570Z,2.97
2018-08-17T14:01:25.953Z,5.80
2018-08-17T14:03:52.635Z,2.42
2018-08-17T14:06:19.564Z,2.67
2018-08-17T14:08:46.427Z,2.67
2018-08-17T14:11:13.104Z,2.70
2018-08-17T14:13:40.938Z,3.22
2018-08-17T14:16:07.951Z,2.83
2018-08-17T14:18:34.916Z,2.80
2018-08-17T14:21:01.610Z,3.10
2018-08-17T14:23:29.337Z,2.58
2018-08-17T14:25:56.578Z,3.25
2018-08-17T14:28:23.345Z,2.70
2018-08-17T14:30:50.097Z,3.22
2018-08-17T14:33:17.819Z,3.45
2018-08-17T14:35:45.562Z,3.50
2018-08-17T14:38:12.251Z,3.40
2018-08-17T14:40:38.926Z,5.43
2018-08-17T14:43:06.982Z,3.92
2018-08-17T14:45:33.711Z,3.30
2018-08-17T14:48:00.717Z,3.12
2018-08-17T14:50:27.411Z,3.65
2018-08-17T14:52:54.102Z,3.40
2018-08-17T14:55:21.042Z,3.90
2018-08-17T14:57:47.884Z,3.53
2018-08-17T15:00:14.832Z,3.33
2018-08-17T15:02:42.389Z,3.50
2018-08-17T15:05:09.117Z,3.45
2018-08-17T15:07:36.087Z,4.00
2018-08-17T15:10:03.226Z,4.25
2018-08-17T15:12:29.974Z,3.70
2018-08-17T15:14:56.810Z,3.72
2018-08-17T15:17:23.546Z,3.70
2018-08-17T15:19:50.996Z,3.78
2018-08-17T15:22:18.461Z,3.50
2018-08-17T15:24:46.332Z,4.05
2018-08-17T15:27:13.276Z,3.90
2018-08-17T15:29:43.290Z,3.55
2018-08-17T15:32:10.236Z,3.87
2018-08-17T15:34:38.519Z,3.87
2018-08-17T15:37:05.770Z,3.83
2018-08-17T15:39:33.422Z,3.55
2018-08-17T15:42:00.314Z,4.53
2018-08-17T15:44:27.351Z,4.03
2018-08-17T15:46:54.507Z,3.30
2018-08-17T15:49:21.471Z,4.05
2018-08-17T15:51:49.155Z,4.05
2018-08-17T15:54:15.880Z,4.18
2018-08-17T16:34:23.478Z,5.35
2018-08-17T16:36:50.266Z,5.60
2018-08-17T16:39:17.010Z,5.50
2018-08-17T16:41:43.751Z,5.03
2018-08-17T16:44:10.432Z,5.78
2018-08-17T16:46:37.864Z,5.68
2018-08-17T16:49:04.601Z,5.60
2018-08-17T16:51:31.300Z,5.57
2018-08-17T16:53:58.721Z,6.37
2018-08-17T16:56:25.394Z,5.43
2018-08-17T16:58:52.846Z,5.40
2018-08-17T17:01:19.538Z,5.55
2018-08-17T17:03:46.180Z,5.55
2018-08-17T17:06:12.852Z,5.28
2018-08-17T17:08:39.485Z,6.25
2018-08-17T17:11:06.162Z,5.32
2018-08-17T17:13:33.706Z,6.35
2018-08-17T17:16:01.119Z,5.87
2018-08-17T17:18:27.759Z,5.90
2018-08-17T17:20:54.565Z,6.40
2018-08-17T17:23:21.193Z,6.87
2018-08-17T17:25:48.597Z,6.40
2018-08-17T17:28:15.408Z,5.87
2018-08-17T17:30:42.135Z,5.05
2018-08-17T17:33:09.607Z,5.40
2018-08-17T17:35:36.397Z,6.25
2018-08-17T17:38:03.123Z,5.40
2018-08-17T17:40:29.805Z,5.47
2018-08-17T17:42:57.224Z,5.80
2018-08-17T17:45:23.888Z,5.73
2018-08-17T17:47:50.607Z,5.80
2018-08-17T17:50:17.228Z,5.97
2018-08-17T17:52:43.925Z,5.30
2018-08-17T17:55:11.377Z,5.43
2018-08-17T17:57:38.031Z,5.60
2018-08-17T18:00:04.718Z,5.33
2018-08-17T18:02:31.495Z,5.13
2018-08-17T18:04:58.878Z,5.12
2018-08-17T18:07:25.636Z,5.57
2018-08-17T18:09:52.416Z,6.18
2018-08-17T18:12:19.084Z,5.80
2018-08-17T18:14:45.745Z,5.93
2018-08-17T18:17:12.516Z,5.70
2018-08-17T18:19:39.994Z,6.15
2018-08-17T18:22:07.449Z,6.65
2018-08-17T18:24:35.285Z,6.30
2018-08-17T18:27:02.651Z,6.47
2018-08-17T18:29:30.691Z,6.20
2018-08-17T18:31:57.364Z,6.63
2018-08-17T18:34:24.047Z,6.00
2018-08-17T18:36:51.594Z,5.53
2018-08-17T18:39:18.336Z,6.40
2018-08-17T18:41:45.809Z,5.87
2018-08-17T18:44:14.623Z,5.93
2018-08-17T18:46:43.602Z,6.30
2018-08-17T18:49:17.516Z,7.03
2018-08-17T18:51:44.220Z,6.30
2018-08-17T18:54:11.659Z,6.10
2018-08-17T18:56:38.347Z,6.27
2018-08-17T18:59:05.073Z,6.10
2018-08-17T19:01:31.826Z,6.60
2018-08-17T19:03:58.901Z,6.33
2018-08-17T19:06:26.134Z,5.90
2018-08-17T19:08:53.560Z,6.57
2018-08-17T19:11:20.353Z,6.13
2018-08-17T19:13:46.994Z,6.00
2018-08-17T19:16:13.761Z,5.50
2018-08-17T19:18:41.257Z,5.47
2018-08-17T19:21:08.769Z,6.20
2018-08-17T19:23:35.430Z,6.00
2018-08-17T19:26:02.916Z,6.37
2018-08-17T19:28:29.700Z,5.90
2018-08-17T19:30:56.981Z,6.43
2018-08-17T19:33:25.592Z,6.37
2018-08-17T19:35:53.281Z,6.00
2018-08-17T19:38:20.717Z,6.23
2018-08-17T19:40:48.478Z,9.43
2018-08-17T19:43:16.372Z,6.50
2018-08-17T19:45:43.500Z,7.00
2018-08-17T19:48:11.333Z,6.50
2018-08-17T19:50:38.687Z,5.80
2018-08-17T19:53:05.646Z,7.40
2018-08-17T19:55:32.719Z,4.60
2018-08-17T19:58:00.710Z,4.00
2018-08-17T20:00:27.671Z,3.53
2018-08-17T20:02:55.353Z,3.93
2018-08-17T20:05:22.142Z,3.70
2018-08-17T20:07:48.954Z,3.40
2018-08-17T20:10:15.875Z,3.73
2018-08-17T20:12:42.689Z,3.30
2018-08-17T20:15:10.957Z,3.40
2018-08-17T20:17:38.500Z,3.37
2018-08-17T20:20:05.492Z,3.00
2018-08-17T20:22:32.610Z,3.17
2018-08-17T20:24:59.940Z,3.60
2018-08-17T20:27:26.890Z,2.97
2018-08-17T20:29:54.501Z,3.00
2018-08-17T20:32:21.542Z,3.13
2018-08-17T20:34:49.415Z,3.10
2018-08-17T20:37:16.743Z,3.03
2018-08-17T20:39:44.178Z,3.80
2018-08-17T20:42:11.366Z,2.67
2018-08-17T20:44:39.161Z,2.63
2018-08-17T20:47:05.998Z,3.70
2018-08-17T20:49:33.798Z,3.50
2018-08-17T20:52:00.680Z,2.73
2018-08-17T20:54:27.653Z,2.47
2018-08-17T20:56:54.511Z,3.27
2018-08-17T20:59:21.472Z,2.40
2018-08-17T21:01:48.402Z,2.07
2018-08-17T21:04:15.992Z,3.60
2018-08-17T21:06:42.718Z,2.73
2018-08-17T21:09:09.459Z,3.57
2018-08-17T21:11:36.212Z,2.30
2018-08-17T21:14:04.382Z,4.27
2018-08-17T21:16:31.364Z,3.20
2018-08-17T21:18:58.028Z,3.07
2018-08-17T21:21:25.729Z,2.60
2018-08-17T21:23:52.450Z,1.93
2018-08-17T21:26:19.206Z,1.93
2018-08-17T21:28:46.076Z,2.30
2018-08-17T21:31:12.887Z,2.50
2018-08-17T21:33:39.626Z,2.10
2018-08-17T21:36:06.470Z,2.23
2018-08-17T21:38:33.213Z,4.00
2018-08-17T21:41:00.052Z,2.40
2018-08-17T21:43:26.793Z,5.90
2018-08-17T21:45:53.728Z,9.40
2018-08-17T21:48:20.416Z,2.87
2018-08-17T21:50:47.087Z,2.10
2018-08-17T21:53:14.729Z,2.30
2018-08-17T21:55:41.424Z,3.00
2018-08-17T21:58:08.156Z,3.00
2018-08-17T22:00:34.873Z,4.00
2018-08-17T22:03:02.459Z,3.33
2018-08-17T22:05:29.300Z,2.80
2018-08-17T22:07:56.143Z,2.30
2018-08-17T22:10:22.937Z,3.63
2018-08-17T22:12:49.633Z,2.10
2018-08-17T22:15:16.383Z,2.00
2018-08-17T22:17:43.155Z,2.70
2018-08-17T22:20:09.830Z,2.83
2018-08-17T22:22:37.235Z,2.47
2018-08-17T22:25:04.145Z,6.20
2018-08-17T22:27:30.812Z,2.37
2018-08-17T22:29:57.667Z,2.60
2018-08-17T22:32:24.336Z,2.40
2018-08-17T22:34:51.926Z,2.63
2018-08-17T22:37:18.641Z,2.93
2018-08-17T22:39:46.125Z,2.40
2018-08-17T22:42:12.976Z,2.63
2018-08-17T22:44:39.680Z,2.60
2018-08-17T22:47:07.121Z,2.33
2018-08-17T22:49:33.902Z,2.93
2018-08-17T22:52:00.619Z,2.20
2018-08-17T22:54:28.028Z,2.43
2018-08-17T22:56:54.736Z,2.63
2018-08-17T22:59:21.436Z,2.00
2018-08-17T23:01:48.119Z,2.40
2018-08-17T23:04:14.858Z,2.23
2018-08-17T23:06:41.653Z,2.47
2018-08-17T23:09:08.422Z,4.37
2018-08-17T23:11:35.284Z,4.10
2018-08-17T23:14:02.023Z,3.97
2018-08-17T23:16:28.746Z,2.50
2018-08-17T23:18:56.224Z,2.23
2018-08-17T23:21:22.963Z,2.20
2018-08-17T23:23:49.931Z,1.90
2018-08-17T23:26:16.576Z,2.50
2018-08-17T23:28:43.285Z,2.60
2018-08-17T23:31:10.025Z,2.00
2018-08-17T23:33:36.970Z,2.50
2018-08-17T23:36:03.639Z,5.93
2018-08-17T23:38:30.450Z,3.20
2018-08-17T23:40:57.165Z,2.50
2018-08-17T23:43:24.854Z,3.17
2018-08-17T23:45:52.107Z,6.03
2018-08-17T23:48:19.565Z,2.43
2018-08-17T23:50:47.084Z,4.73
2018-08-17T23:53:14.125Z,2.63
2018-08-17T23:55:40.908Z,4.07
2018-08-17T23:58:08.342Z,6.23
